Linwood, Arkansas
Current Conditions -  °F | °C
As of 8:53 AM on Sunday 23 Nov 2014 (Local Time) from KPBF Reporting Station
Moderate Rain Moderate Rain  
Wind Chill: 59°   Ceiling: 600
Heat Index: 59°   Visibility: 6mi
Dew Point: 57°   Wind: 12mph
Humidity: 93%   Direction: 130°SE
Pressure: 29.6"   Gusts: NA
Location:  34.1538°N, 91.7975°W
Report Text: KPBF 231453Z AUTO 13010KT 6SM RA BR BKN006 BKN075 OVC090 15/14 A2960 RMK AO2 SLP023 P0006 60011 T01500139 58032
Loading
Personal Weather Stations






























Interactive Weather Map New forecast layout! Learn more

10-Day Weather Forecast

Advertisements
Track Severe Weather on mobile